createdAt,value
2022-10-01T00:00:55.456Z,21.08
2022-10-01T00:03:57.734Z,21.52
2022-10-01T00:07:04.581Z,22.05
2022-10-01T00:10:07.934Z,22.87
2022-10-01T00:13:11.192Z,22.83
2022-10-01T00:16:16.416Z,23.15
2022-10-01T00:19:18.691Z,24.05
2022-10-01T00:22:20.975Z,25.67
2022-10-01T00:25:25.444Z,23.77
2022-10-01T00:28:27.629Z,22.77
2022-10-01T00:31:30.270Z,22.90
2022-10-01T00:34:32.561Z,22.50
2022-10-01T00:37:37.804Z,21.73
2022-10-01T00:40:39.922Z,21.90
2022-10-01T00:43:47.879Z,21.77
2022-10-01T00:46:50.247Z,23.17
2022-10-01T00:49:59.195Z,23.77
2022-10-01T00:53:08.579Z,23.63
2022-10-01T00:56:10.914Z,24.57
2022-10-01T00:59:13.557Z,25.00
2022-10-01T01:02:17.122Z,25.05
2022-10-01T01:05:20.086Z,25.75
2022-10-01T01:08:22.259Z,24.38
2022-10-01T01:11:40.105Z,22.27
2022-10-01T01:14:58.043Z,23.30
2022-10-01T01:18:13.225Z,23.48
2022-10-01T01:21:29.394Z,23.92
2022-10-01T01:24:31.529Z,24.33
2022-10-01T01:27:38.495Z,25.83
2022-10-01T01:30:41.545Z,25.50
2022-10-01T01:33:47.233Z,22.80
2022-10-01T01:36:56.206Z,23.70
2022-10-01T01:39:59.946Z,23.13
2022-10-01T01:43:05.630Z,23.13
2022-10-01T01:46:10.226Z,21.83
2022-10-01T01:49:14.353Z,21.08
2022-10-01T01:52:17.406Z,21.67
2022-10-01T01:55:21.189Z,19.35
2022-10-01T01:58:26.195Z,19.07
2022-10-01T02:01:35.429Z,19.87
2022-10-01T02:04:50.100Z,20.33
2022-10-01T02:08:01.832Z,18.63
2022-10-01T02:11:29.133Z,19.70
2022-10-01T02:14:46.761Z,19.33
2022-10-01T02:18:03.424Z,18.50
2022-10-01T02:21:12.103Z,18.15
2022-10-01T02:24:34.873Z,18.23
2022-10-01T02:27:41.071Z,18.45
2022-10-01T02:30:47.136Z,17.40
2022-10-01T02:33:53.094Z,18.27
2022-10-01T02:36:56.380Z,18.00
2022-10-01T02:39:59.829Z,18.38
2022-10-01T02:43:10.265Z,18.15
2022-10-01T02:46:42.188Z,17.17
2022-10-01T02:49:44.481Z,16.47
2022-10-01T02:52:59.174Z,16.63
2022-10-01T02:56:03.208Z,16.73
2022-10-01T02:59:08.831Z,17.17
2022-10-01T03:02:11.324Z,17.20
2022-10-01T03:05:14.750Z,15.70
2022-10-01T03:08:16.951Z,16.30
2022-10-01T03:11:21.170Z,15.68
2022-10-01T03:14:24.641Z,16.10
2022-10-01T03:17:27.119Z,15.83
2022-10-01T03:20:29.257Z,15.37
2022-10-01T03:23:31.438Z,15.18
2022-10-01T03:26:33.641Z,15.32
2022-10-01T03:29:35.881Z,15.40
2022-10-01T03:32:38.424Z,15.93
2022-10-01T03:35:40.586Z,15.90
2022-10-01T03:38:42.742Z,17.20
2022-10-01T03:41:45.076Z,16.20
2022-10-01T03:44:47.974Z,16.98
2022-10-01T03:47:53.400Z,16.13
2022-10-01T03:50:57.527Z,17.27
2022-10-01T03:53:59.781Z,15.85
2022-10-01T03:57:01.979Z,16.27
2022-10-01T04:00:05.532Z,16.02
2022-10-01T04:03:14.813Z,16.10
2022-10-01T04:06:17.032Z,15.50
2022-10-01T04:09:19.131Z,16.00
2022-10-01T04:12:21.244Z,15.57
2022-10-01T04:15:24.293Z,16.17
2022-10-01T04:18:26.463Z,15.43
2022-10-01T04:21:29.117Z,15.63
2022-10-01T04:24:31.245Z,16.75
2022-10-01T04:27:33.384Z,15.68
2022-10-01T04:30:37.440Z,16.40
2022-10-01T04:33:39.614Z,15.63
2022-10-01T04:36:41.849Z,16.30
2022-10-01T04:39:43.994Z,17.48
2022-10-01T04:42:47.222Z,16.90
2022-10-01T04:45:50.040Z,16.73
2022-10-01T04:48:52.423Z,17.50
2022-10-01T04:51:54.596Z,16.93
2022-10-01T04:54:56.709Z,16.38
2022-10-01T04:57:59.638Z,16.10
2022-10-01T05:01:02.516Z,17.17
2022-10-01T05:04:04.670Z,16.23
2022-10-01T05:07:06.847Z,16.80
2022-10-01T05:10:12.323Z,16.80
2022-10-01T05:13:14.915Z,17.58
2022-10-01T05:16:17.102Z,17.45
2022-10-01T05:19:19.266Z,17.40
2022-10-01T05:22:21.425Z,16.63
2022-10-01T05:25:23.789Z,17.30
2022-10-01T05:28:28.103Z,17.42
2022-10-01T05:31:30.360Z,16.98
2022-10-01T05:34:32.768Z,16.53
2022-10-01T05:37:35.537Z,15.60
2022-10-01T05:40:37.728Z,15.38
2022-10-01T05:43:39.863Z,16.25
2022-10-01T05:46:43.650Z,16.33
2022-10-01T05:49:46.494Z,15.80
2022-10-01T05:52:53.286Z,16.67
2022-10-01T05:55:56.372Z,17.85
2022-10-01T05:58:59.874Z,16.88
2022-10-01T06:02:04.237Z,26.42
2022-10-01T06:05:07.903Z,22.50
2022-10-01T06:08:10.898Z,20.30
2022-10-01T06:11:13.886Z,20.25
2022-10-01T06:14:17.389Z,19.13
2022-10-01T06:17:20.277Z,18.83
2022-10-01T06:20:24.496Z,18.93
2022-10-01T06:23:26.893Z,17.90
2022-10-01T06:26:29.667Z,19.40
2022-10-01T06:29:31.953Z,19.30
2022-10-01T06:32:35.201Z,20.80
2022-10-01T06:35:42.898Z,20.70
2022-10-01T06:38:48.582Z,20.30
2022-10-01T06:41:50.739Z,21.02
2022-10-01T06:44:53.218Z,21.85
2022-10-01T06:48:02.674Z,19.83
2022-10-01T06:51:05.852Z,19.50
2022-10-01T06:54:08.655Z,19.07
2022-10-01T06:57:11.122Z,18.80
2022-10-01T07:00:14.665Z,18.65
2022-10-01T07:03:20.094Z,19.30
2022-10-01T07:06:22.227Z,19.53
2022-10-01T07:09:25.502Z,18.87
2022-10-01T07:12:27.823Z,18.02
2022-10-01T07:15:30.056Z,18.05
2022-10-01T07:18:32.190Z,17.25
2022-10-01T07:21:34.687Z,16.73
2022-10-01T07:24:37.053Z,16.97
2022-10-01T07:27:39.381Z,15.43
2022-10-01T07:30:43.180Z,16.30
2022-10-01T07:33:45.373Z,15.90
2022-10-01T07:36:48.977Z,13.93
2022-10-01T07:39:51.255Z,13.47
2022-10-01T07:42:54.944Z,15.45
2022-10-01T07:45:58.588Z,15.43
2022-10-01T07:49:01.643Z,16.50
2022-10-01T07:52:10.914Z,16.00
2022-10-01T07:55:16.231Z,14.03
2022-10-01T07:58:18.985Z,15.88
2022-10-01T08:01:21.283Z,15.50
2022-10-01T08:04:41.813Z,14.90
2022-10-01T08:07:45.435Z,15.47
2022-10-01T08:10:50.104Z,14.27
2022-10-01T08:13:53.333Z,13.57
2022-10-01T08:16:57.318Z,12.73
2022-10-01T08:20:00.661Z,12.27
2022-10-01T08:23:04.980Z,11.80
2022-10-01T08:26:08.886Z,11.70
2022-10-01T08:29:16.309Z,11.57
2022-10-01T08:32:20.702Z,12.05
2022-10-01T08:35:25.133Z,11.05
2022-10-01T08:38:28.220Z,11.97
2022-10-01T08:41:41.258Z,11.27
2022-10-01T08:44:46.495Z,11.63
2022-10-01T08:48:47.650Z,11.45
2022-10-01T08:51:56.292Z,11.82
2022-10-01T08:55:11.867Z,12.60
2022-10-01T08:58:21.942Z,11.57
2022-10-01T09:01:24.880Z,12.52
2022-10-01T09:04:27.568Z,13.38
2022-10-01T09:07:59.197Z,13.10
2022-10-01T09:11:05.941Z,13.80
2022-10-01T09:14:38.735Z,13.00
2022-10-01T09:18:05.867Z,13.00
2022-10-01T09:21:16.375Z,12.68
2022-10-01T09:24:43.866Z,12.45
2022-10-01T09:27:46.869Z,13.30
2022-10-01T09:31:09.346Z,16.63
2022-10-01T09:34:17.074Z,16.10
2022-10-01T09:37:26.104Z,15.27
2022-10-01T09:40:41.403Z,13.52
2022-10-01T09:43:43.983Z,12.77
2022-10-01T09:46:46.853Z,13.67
2022-10-01T09:49:49.351Z,13.60
2022-10-01T09:52:52.782Z,13.55
2022-10-01T09:55:59.113Z,13.75
2022-10-01T09:59:05.201Z,13.10
2022-10-01T10:02:17.708Z,13.07
2022-10-01T10:05:28.539Z,13.18
2022-10-01T10:08:34.033Z,13.43
2022-10-01T10:11:36.540Z,12.48
2022-10-01T10:14:42.302Z,12.83
2022-10-01T10:17:49.247Z,12.80
2022-10-01T10:20:52.829Z,13.88
2022-10-01T10:24:00.669Z,14.90
2022-10-01T10:27:06.095Z,14.75
2022-10-01T10:30:16.514Z,14.77
2022-10-01T10:33:20.899Z,15.40
2022-10-01T10:36:33.200Z,15.57
2022-10-01T10:39:37.916Z,16.27
2022-10-01T10:42:47.724Z,15.18
2022-10-01T10:45:56.408Z,14.17
2022-10-01T10:49:30.407Z,14.83
2022-10-01T10:52:36.648Z,14.10
2022-10-01T10:55:40.484Z,14.45
2022-10-01T10:58:45.524Z,13.90
2022-10-01T11:01:49.199Z,12.80
2022-10-01T11:04:53.654Z,13.20
2022-10-01T11:08:01.769Z,12.85
2022-10-01T11:11:22.884Z,13.75
2022-10-01T11:14:43.997Z,12.82
2022-10-01T11:18:24.872Z,11.57
2022-10-01T11:21:36.674Z,12.90
2022-10-01T11:25:04.142Z,13.65
2022-10-01T11:28:27.650Z,13.50
2022-10-01T11:31:53.132Z,14.00
2022-10-01T11:35:15.374Z,13.07
2022-10-01T11:38:41.713Z,13.07
2022-10-01T11:41:49.618Z,13.10
2022-10-01T11:45:00.777Z,12.80
2022-10-01T11:48:14.677Z,12.82
2022-10-01T11:51:20.735Z,11.80
2022-10-01T11:54:25.926Z,11.87
2022-10-01T11:57:58.232Z,12.13
2022-10-01T12:01:05.752Z,12.10
2022-10-01T12:04:19.906Z,11.45
2022-10-01T12:07:40.475Z,10.73
2022-10-01T12:10:59.302Z,9.93
2022-10-01T12:14:09.919Z,9.35
2022-10-01T12:17:20.770Z,9.32
2022-10-01T12:20:42.287Z,8.95
2022-10-01T12:23:57.166Z,9.00
2022-10-01T12:26:59.256Z,9.33
2022-10-01T12:30:23.381Z,8.27
2022-10-01T12:34:03.104Z,8.48
2022-10-01T12:37:14.496Z,10.35
2022-10-01T12:40:35.784Z,11.20
2022-10-01T12:44:06.728Z,11.10
2022-10-01T12:47:24.777Z,11.55
2022-10-01T12:50:45.219Z,12.23
2022-10-01T12:54:13.399Z,10.18
2022-10-01T12:57:24.624Z,10.17
2022-10-01T13:00:32.002Z,9.70
2022-10-01T13:04:03.509Z,10.38
2022-10-01T13:07:23.923Z,9.23
2022-10-01T13:11:20.615Z,9.73
2022-10-01T13:14:23.134Z,8.87
2022-10-01T13:17:34.955Z,8.50
2022-10-01T13:20:43.408Z,8.63
2022-10-01T13:23:51.623Z,8.27
2022-10-01T13:26:57.816Z,7.93
2022-10-01T13:30:16.367Z,7.93
2022-10-01T13:33:32.144Z,7.70
2022-10-01T13:36:35.609Z,7.68
2022-10-01T13:39:42.120Z,6.88
2022-10-01T13:42:46.117Z,7.18
2022-10-01T13:45:50.994Z,7.20
2022-10-01T13:48:53.396Z,7.20
2022-10-01T13:51:56.077Z,6.88
2022-10-01T13:55:00.384Z,6.85
2022-10-01T13:58:08.003Z,6.97
2022-10-01T14:01:19.974Z,6.60
2022-10-01T14:04:40.650Z,6.20
2022-10-01T14:07:43.676Z,6.60
2022-10-01T14:11:19.404Z,6.10
2022-10-01T14:14:47.666Z,6.50
2022-10-01T14:17:53.318Z,6.10
2022-10-01T14:21:08.873Z,6.17
2022-10-01T14:24:17.063Z,6.47
2022-10-01T14:27:33.657Z,6.10
2022-10-01T14:30:46.360Z,7.03
2022-10-01T14:34:02.629Z,8.90
2022-10-01T14:37:07.981Z,11.80
2022-10-01T14:40:22.483Z,13.23
2022-10-01T14:43:26.891Z,11.98
2022-10-01T14:46:29.063Z,12.45
2022-10-01T14:49:32.900Z,14.83
2022-10-01T14:52:35.814Z,12.50
2022-10-01T14:55:37.989Z,13.25
2022-10-01T14:58:55.079Z,12.90
2022-10-01T15:01:59.761Z,14.25
2022-10-01T15:05:02.044Z,15.57
2022-10-01T15:08:36.241Z,15.07
2022-10-01T15:11:43.542Z,14.85
2022-10-01T15:14:47.355Z,14.02
2022-10-01T15:17:50.118Z,13.90
2022-10-01T15:20:56.519Z,13.07
2022-10-01T15:23:58.956Z,10.20
2022-10-01T15:27:01.764Z,6.63
2022-10-01T15:30:06.176Z,5.53
2022-10-01T15:33:21.157Z,4.80
2022-10-01T15:36:23.336Z,4.60
2022-10-01T15:39:38.504Z,3.80
2022-10-01T15:43:07.588Z,4.20
2022-10-01T15:46:22.963Z,4.00
2022-10-01T15:49:26.018Z,4.55
2022-10-01T15:52:49.191Z,4.80
2022-10-01T15:55:57.060Z,3.83
2022-10-01T15:59:11.015Z,4.30
2022-10-01T16:02:20.743Z,4.63
2022-10-01T16:05:26.027Z,4.32
2022-10-01T16:08:34.578Z,3.27
2022-10-01T16:11:58.210Z,3.50
2022-10-01T16:15:03.750Z,3.20
2022-10-01T16:18:21.917Z,3.13
2022-10-01T16:21:24.510Z,2.70
2022-10-01T16:24:29.579Z,2.57
2022-10-01T16:27:35.712Z,1.87
2022-10-01T16:30:37.826Z,1.90
2022-10-01T16:33:39.969Z,2.22
2022-10-01T16:36:42.291Z,2.80
2022-10-01T16:39:44.799Z,2.67
2022-10-01T16:42:48.160Z,2.30
2022-10-01T16:45:50.771Z,1.75
2022-10-01T16:48:52.971Z,4.05
2022-10-01T16:51:55.447Z,2.45
2022-10-01T16:54:57.687Z,2.47
2022-10-01T16:58:02.085Z,3.07
2022-10-01T17:01:08.748Z,2.95
2022-10-01T17:04:13.438Z,3.10
2022-10-01T17:07:15.553Z,4.30
2022-10-01T17:10:19.505Z,5.90
2022-10-01T17:13:21.652Z,2.37
2022-10-01T17:16:24.733Z,3.03
2022-10-01T17:19:27.015Z,1.98
2022-10-01T17:22:29.114Z,1.48
2022-10-01T17:25:34.481Z,2.17
2022-10-01T17:28:36.679Z,2.30
2022-10-01T17:31:40.895Z,2.05
2022-10-01T17:34:43.129Z,1.35
2022-10-01T17:37:45.339Z,2.20
2022-10-01T17:40:51.771Z,3.00
2022-10-01T17:43:57.720Z,1.90
2022-10-01T17:46:59.796Z,4.43
2022-10-01T17:50:05.895Z,2.22
2022-10-01T17:53:08.063Z,2.92
2022-10-01T17:56:14.517Z,2.00
2022-10-01T17:59:16.885Z,1.63
2022-10-01T18:02:40.859Z,1.40
2022-10-01T18:05:45.414Z,1.20
2022-10-01T18:08:55.627Z,1.20
2022-10-01T18:11:59.084Z,1.30
2022-10-01T18:15:05.551Z,1.77
2022-10-01T18:19:24.331Z,2.35
2022-10-01T18:21:32.550Z,2.50
2022-10-01T18:24:35.542Z,2.20
2022-10-01T18:27:38.740Z,1.73
2022-10-01T18:30:41.729Z,1.80
2022-10-01T18:33:55.952Z,2.65
2022-10-01T18:37:05.505Z,4.53
2022-10-01T18:40:14.388Z,2.40
2022-10-01T18:43:23.253Z,3.07
2022-10-01T18:46:46.849Z,3.73
2022-10-01T18:49:58.658Z,17.65
2022-10-01T18:53:06.545Z,22.63
2022-10-01T18:56:18.874Z,12.63
2022-10-01T18:59:33.758Z,4.27
2022-10-01T19:02:38.834Z,4.03
2022-10-01T19:06:22.327Z,4.55
2022-10-01T19:09:37.781Z,6.03
2022-10-01T19:12:48.627Z,3.10
2022-10-01T19:16:02.723Z,3.40
2022-10-01T19:19:26.226Z,3.70
2022-10-01T19:22:41.772Z,3.25
2022-10-01T19:25:50.415Z,3.53
2022-10-01T19:29:02.361Z,3.70
2022-10-01T19:32:16.793Z,3.90
2022-10-01T19:35:26.387Z,4.63
2022-10-01T19:38:37.619Z,5.60
2022-10-01T19:41:47.566Z,4.80
2022-10-01T19:44:54.306Z,4.50
2022-10-01T19:48:09.837Z,5.43
2022-10-01T19:51:13.582Z,4.67
2022-10-01T19:54:21.532Z,23.58
2022-10-01T19:57:26.161Z,6.40
2022-10-01T20:00:29.359Z,4.57
2022-10-01T20:03:38.456Z,4.10
2022-10-01T20:06:44.507Z,3.43
2022-10-01T20:10:13.750Z,4.05
2022-10-01T20:13:34.767Z,3.90
2022-10-01T20:16:41.893Z,3.10
2022-10-01T20:20:13.415Z,3.60
2022-10-01T20:23:35.247Z,3.30
2022-10-01T20:26:45.892Z,3.17
2022-10-01T20:30:06.008Z,3.67
2022-10-01T20:33:25.253Z,3.75
2022-10-01T20:36:46.054Z,3.30
2022-10-01T20:39:52.717Z,3.47
2022-10-01T20:43:04.999Z,3.50
2022-10-01T20:46:14.618Z,3.30
2022-10-01T20:50:04.020Z,3.53
2022-10-01T20:53:18.118Z,3.17
2022-10-01T20:56:32.851Z,3.47
2022-10-01T20:59:43.453Z,3.30
2022-10-01T21:02:51.239Z,3.38
2022-10-01T21:05:56.719Z,3.30
2022-10-01T21:09:21.881Z,3.27
2022-10-01T21:12:36.105Z,3.10
2022-10-01T21:15:48.518Z,3.97
2022-10-01T21:19:14.171Z,3.75
2022-10-01T21:23:03.643Z,3.17
2022-10-01T21:26:18.499Z,3.50
2022-10-01T21:29:34.893Z,2.70
2022-10-01T21:32:47.003Z,2.33
2022-10-01T21:35:59.504Z,2.88
2022-10-01T21:39:05.160Z,2.45
2022-10-01T21:42:37.435Z,2.40
2022-10-01T21:45:42.204Z,2.47
2022-10-01T21:49:10.453Z,2.38
2022-10-01T21:52:22.862Z,2.70
2022-10-01T21:56:04.052Z,2.72
2022-10-01T21:59:30.912Z,2.63
2022-10-01T22:02:36.861Z,2.77
2022-10-01T22:05:57.770Z,2.88
2022-10-01T22:09:03.631Z,2.50
2022-10-01T22:12:07.955Z,2.30
2022-10-01T22:15:30.509Z,2.17
2022-10-01T22:18:40.564Z,1.90
2022-10-01T22:21:45.907Z,1.50
2022-10-01T22:24:56.272Z,1.80
2022-10-01T22:28:08.336Z,1.70
2022-10-01T22:31:16.543Z,1.47
2022-10-01T22:34:23.062Z,1.63
2022-10-01T22:37:34.552Z,2.00
2022-10-01T22:40:44.405Z,1.90
2022-10-01T22:43:47.396Z,1.60
2022-10-01T22:47:08.406Z,1.80
2022-10-01T22:50:36.176Z,1.50
2022-10-01T22:54:02.003Z,1.40
2022-10-01T22:57:18.716Z,1.60
2022-10-01T23:00:21.812Z,1.50
2022-10-01T23:03:49.279Z,1.63
2022-10-01T23:07:05.068Z,1.70
2022-10-01T23:10:37.139Z,1.75
2022-10-01T23:14:07.063Z,1.65
2022-10-01T23:17:31.038Z,1.45
2022-10-01T23:21:01.895Z,1.70
2022-10-01T23:24:14.483Z,1.50
2022-10-01T23:27:30.561Z,1.63
2022-10-01T23:30:59.306Z,1.50
2022-10-01T23:34:04.268Z,1.30
2022-10-01T23:37:10.643Z,1.90
2022-10-01T23:40:14.980Z,1.60
2022-10-01T23:43:29.872Z,1.85
2022-10-01T23:46:34.034Z,1.73
2022-10-01T23:49:37.417Z,1.90
2022-10-01T23:52:47.260Z,2.20
2022-10-01T23:56:27.824Z,2.00
2022-10-01T23:59:35.187Z,2.17
